sensor_id;sensor_type;location;lat;lon;timestamp;P1;durP1;ratioP1;P2;durP2;ratioP2
2031;SDS011;27625;50.422;7.944;2024-01-30T00:00:49;20.60;;;14.13;;
2031;SDS011;27625;50.422;7.944;2024-01-30T00:03:18;21.23;;;13.93;;
2031;SDS011;27625;50.422;7.944;2024-01-30T00:05:46;20.40;;;14.00;;
2031;SDS011;27625;50.422;7.944;2024-01-30T00:08:13;22.83;;;14.97;;
2031;SDS011;27625;50.422;7.944;2024-01-30T00:10:46;21.27;;;13.67;;
2031;SDS011;27625;50.422;7.944;2024-01-30T00:13:13;22.03;;;14.70;;
2031;SDS011;27625;50.422;7.944;2024-01-30T00:15:42;23.47;;;13.77;;
2031;SDS011;27625;50.422;7.944;2024-01-30T00:18:09;21.33;;;14.23;;
2031;SDS011;27625;50.422;7.944;2024-01-30T00:20:37;18.07;;;13.30;;
2031;SDS011;27625;50.422;7.944;2024-01-30T00:23:05;27.47;;;14.77;;
2031;SDS011;27625;50.422;7.944;2024-01-30T00:25:33;24.47;;;14.50;;
2031;SDS011;27625;50.422;7.944;2024-01-30T00:28:00;23.37;;;14.30;;
2031;SDS011;27625;50.422;7.944;2024-01-30T00:30:27;23.13;;;14.77;;
2031;SDS011;27625;50.422;7.944;2024-01-30T00:33:01;22.33;;;13.27;;
2031;SDS011;27625;50.422;7.944;2024-01-30T00:35:30;23.90;;;14.30;;
2031;SDS011;27625;50.422;7.944;2024-01-30T00:37:57;23.33;;;15.37;;
2031;SDS011;27625;50.422;7.944;2024-01-30T00:40:25;20.23;;;13.77;;
2031;SDS011;27625;50.422;7.944;2024-01-30T00:42:51;20.63;;;13.17;;
2031;SDS011;27625;50.422;7.944;2024-01-30T00:45:22;19.83;;;13.00;;
2031;SDS011;27625;50.422;7.944;2024-01-30T00:47:49;18.30;;;14.13;;
2031;SDS011;27625;50.422;7.944;2024-01-30T00:50:17;19.07;;;13.43;;
2031;SDS011;27625;50.422;7.944;2024-01-30T00:52:44;22.73;;;14.00;;
2031;SDS011;27625;50.422;7.944;2024-01-30T00:55:17;21.67;;;13.00;;
2031;SDS011;27625;50.422;7.944;2024-01-30T00:57:45;21.23;;;14.77;;
2031;SDS011;27625;50.422;7.944;2024-01-30T01:00:13;21.53;;;13.43;;
2031;SDS011;27625;50.422;7.944;2024-01-30T01:02:44;19.83;;;13.50;;
2031;SDS011;27625;50.422;7.944;2024-01-30T01:05:11;19.70;;;14.17;;
2031;SDS011;27625;50.422;7.944;2024-01-30T01:07:38;19.80;;;13.27;;
2031;SDS011;27625;50.422;7.944;2024-01-30T01:12:38;20.80;;;12.70;;
2031;SDS011;27625;50.422;7.944;2024-01-30T01:15:07;24.10;;;15.07;;
2031;SDS011;27625;50.422;7.944;2024-01-30T01:17:36;22.80;;;14.20;;
2031;SDS011;27625;50.422;7.944;2024-01-30T01:20:03;20.50;;;13.10;;
2031;SDS011;27625;50.422;7.944;2024-01-30T01:22:41;19.43;;;13.33;;
2031;SDS011;27625;50.422;7.944;2024-01-30T01:25:10;23.17;;;14.57;;
2031;SDS011;27625;50.422;7.944;2024-01-30T01:27:37;19.93;;;13.40;;
2031;SDS011;27625;50.422;7.944;2024-01-30T01:30:08;24.10;;;13.07;;
2031;SDS011;27625;50.422;7.944;2024-01-30T01:32:37;20.30;;;13.27;;
2031;SDS011;27625;50.422;7.944;2024-01-30T01:35:10;20.17;;;13.03;;
2031;SDS011;27625;50.422;7.944;2024-01-30T01:37:37;26.30;;;15.27;;
2031;SDS011;27625;50.422;7.944;2024-01-30T01:40:05;23.37;;;13.20;;
2031;SDS011;27625;50.422;7.944;2024-01-30T01:42:33;20.80;;;13.13;;
2031;SDS011;27625;50.422;7.944;2024-01-30T01:45:01;19.80;;;13.23;;
2031;SDS011;27625;50.422;7.944;2024-01-30T01:47:29;26.13;;;14.50;;
2031;SDS011;27625;50.422;7.944;2024-01-30T01:49:55;23.73;;;14.03;;
2031;SDS011;27625;50.422;7.944;2024-01-30T01:52:22;21.17;;;14.30;;
2031;SDS011;27625;50.422;7.944;2024-01-30T01:54:49;24.03;;;13.00;;
2031;SDS011;27625;50.422;7.944;2024-01-30T01:57:16;21.03;;;14.40;;
2031;SDS011;27625;50.422;7.944;2024-01-30T01:59:42;21.97;;;13.87;;
2031;SDS011;27625;50.422;7.944;2024-01-30T02:02:09;27.63;;;15.33;;
2031;SDS011;27625;50.422;7.944;2024-01-30T02:04:39;23.10;;;13.80;;
2031;SDS011;27625;50.422;7.944;2024-01-30T02:07:05;24.80;;;14.20;;
2031;SDS011;27625;50.422;7.944;2024-01-30T02:09:33;23.77;;;14.53;;
2031;SDS011;27625;50.422;7.944;2024-01-30T02:12:01;22.60;;;14.73;;
2031;SDS011;27625;50.422;7.944;2024-01-30T02:14:28;28.67;;;14.60;;
2031;SDS011;27625;50.422;7.944;2024-01-30T02:16:55;20.83;;;12.83;;
2031;SDS011;27625;50.422;7.944;2024-01-30T02:19:21;19.50;;;13.40;;
2031;SDS011;27625;50.422;7.944;2024-01-30T02:21:51;23.30;;;13.40;;
2031;SDS011;27625;50.422;7.944;2024-01-30T02:24:17;19.17;;;13.13;;
2031;SDS011;27625;50.422;7.944;2024-01-30T02:26:46;29.40;;;15.83;;
2031;SDS011;27625;50.422;7.944;2024-01-30T02:29:13;18.90;;;13.37;;
2031;SDS011;27625;50.422;7.944;2024-01-30T02:31:40;21.77;;;13.70;;
2031;SDS011;27625;50.422;7.944;2024-01-30T02:34:07;21.10;;;14.43;;
2031;SDS011;27625;50.422;7.944;2024-01-30T02:36:35;22.13;;;14.03;;
2031;SDS011;27625;50.422;7.944;2024-01-30T02:39:09;21.53;;;14.73;;
2031;SDS011;27625;50.422;7.944;2024-01-30T02:41:36;23.53;;;15.00;;
2031;SDS011;27625;50.422;7.944;2024-01-30T02:44:03;22.60;;;13.53;;
2031;SDS011;27625;50.422;7.944;2024-01-30T02:46:31;22.37;;;13.60;;
2031;SDS011;27625;50.422;7.944;2024-01-30T02:49:00;19.33;;;12.63;;
2031;SDS011;27625;50.422;7.944;2024-01-30T02:51:27;21.53;;;13.83;;
2031;SDS011;27625;50.422;7.944;2024-01-30T02:53:54;18.90;;;13.43;;
2031;SDS011;27625;50.422;7.944;2024-01-30T02:56:23;20.53;;;13.60;;
2031;SDS011;27625;50.422;7.944;2024-01-30T02:58:51;23.63;;;14.60;;
2031;SDS011;27625;50.422;7.944;2024-01-30T03:01:19;23.67;;;14.80;;
2031;SDS011;27625;50.422;7.944;2024-01-30T03:03:46;21.83;;;12.33;;
2031;SDS011;27625;50.422;7.944;2024-01-30T03:06:12;20.17;;;13.80;;
2031;SDS011;27625;50.422;7.944;2024-01-30T03:08:41;21.00;;;14.00;;
2031;SDS011;27625;50.422;7.944;2024-01-30T03:11:08;22.47;;;13.73;;
2031;SDS011;27625;50.422;7.944;2024-01-30T03:13:38;22.17;;;14.50;;
2031;SDS011;27625;50.422;7.944;2024-01-30T03:16:08;23.00;;;13.90;;
2031;SDS011;27625;50.422;7.944;2024-01-30T03:18:35;20.97;;;14.20;;
2031;SDS011;27625;50.422;7.944;2024-01-30T03:21:07;26.00;;;15.20;;
2031;SDS011;27625;50.422;7.944;2024-01-30T03:23:36;18.47;;;13.50;;
2031;SDS011;27625;50.422;7.944;2024-01-30T03:26:03;22.80;;;14.63;;
2031;SDS011;27625;50.422;7.944;2024-01-30T03:28:31;21.80;;;13.83;;
2031;SDS011;27625;50.422;7.944;2024-01-30T03:31:00;28.10;;;13.40;;
2031;SDS011;27625;50.422;7.944;2024-01-30T03:33:27;22.43;;;14.80;;
2031;SDS011;27625;50.422;7.944;2024-01-30T03:35:53;22.53;;;14.30;;
2031;SDS011;27625;50.422;7.944;2024-01-30T03:38:24;17.40;;;12.77;;
2031;SDS011;27625;50.422;7.944;2024-01-30T03:40:51;22.30;;;14.50;;
2031;SDS011;27625;50.422;7.944;2024-01-30T03:43:18;27.23;;;15.53;;
2031;SDS011;27625;50.422;7.944;2024-01-30T03:45:49;24.40;;;14.50;;
2031;SDS011;27625;50.422;7.944;2024-01-30T03:48:18;23.00;;;14.10;;
2031;SDS011;27625;50.422;7.944;2024-01-30T03:50:45;27.03;;;14.53;;
2031;SDS011;27625;50.422;7.944;2024-01-30T03:53:12;28.60;;;15.90;;
2031;SDS011;27625;50.422;7.944;2024-01-30T03:55:41;23.07;;;13.33;;
2031;SDS011;27625;50.422;7.944;2024-01-30T03:58:07;18.43;;;12.93;;
2031;SDS011;27625;50.422;7.944;2024-01-30T04:00:36;25.70;;;15.53;;
2031;SDS011;27625;50.422;7.944;2024-01-30T04:03:03;21.20;;;14.07;;
2031;SDS011;27625;50.422;7.944;2024-01-30T04:05:33;23.43;;;15.93;;
2031;SDS011;27625;50.422;7.944;2024-01-30T04:08:01;23.17;;;13.40;;
2031;SDS011;27625;50.422;7.944;2024-01-30T04:10:28;21.53;;;12.97;;
2031;SDS011;27625;50.422;7.944;2024-01-30T04:15:27;22.37;;;14.47;;
2031;SDS011;27625;50.422;7.944;2024-01-30T04:17:57;28.33;;;16.60;;
2031;SDS011;27625;50.422;7.944;2024-01-30T04:20:24;21.83;;;14.80;;
2031;SDS011;27625;50.422;7.944;2024-01-30T04:22:54;23.73;;;13.47;;
2031;SDS011;27625;50.422;7.944;2024-01-30T04:25:20;25.03;;;14.57;;
2031;SDS011;27625;50.422;7.944;2024-01-30T04:27:47;26.73;;;16.60;;
2031;SDS011;27625;50.422;7.944;2024-01-30T04:30:14;21.37;;;13.73;;
2031;SDS011;27625;50.422;7.944;2024-01-30T04:32:41;19.73;;;12.90;;
2031;SDS011;27625;50.422;7.944;2024-01-30T04:35:08;22.47;;;14.63;;
2031;SDS011;27625;50.422;7.944;2024-01-30T04:37:35;19.40;;;13.47;;
2031;SDS011;27625;50.422;7.944;2024-01-30T04:40:03;23.63;;;13.07;;
2031;SDS011;27625;50.422;7.944;2024-01-30T04:42:31;24.30;;;12.97;;
2031;SDS011;27625;50.422;7.944;2024-01-30T04:44:58;17.90;;;11.97;;
2031;SDS011;27625;50.422;7.944;2024-01-30T04:47:25;24.57;;;15.30;;
2031;SDS011;27625;50.422;7.944;2024-01-30T04:49:52;22.33;;;14.50;;
2031;SDS011;27625;50.422;7.944;2024-01-30T04:52:20;20.50;;;13.50;;
2031;SDS011;27625;50.422;7.944;2024-01-30T04:54:47;23.23;;;14.43;;
2031;SDS011;27625;50.422;7.944;2024-01-30T04:57:18;23.53;;;13.83;;
2031;SDS011;27625;50.422;7.944;2024-01-30T04:59:46;22.37;;;14.47;;
2031;SDS011;27625;50.422;7.944;2024-01-30T05:02:12;23.57;;;14.20;;
2031;SDS011;27625;50.422;7.944;2024-01-30T05:04:40;17.20;;;12.97;;
2031;SDS011;27625;50.422;7.944;2024-01-30T05:07:07;18.67;;;13.67;;
2031;SDS011;27625;50.422;7.944;2024-01-30T05:09:33;20.07;;;13.60;;
2031;SDS011;27625;50.422;7.944;2024-01-30T05:12:00;21.50;;;14.03;;
2031;SDS011;27625;50.422;7.944;2024-01-30T05:14:34;24.07;;;14.90;;
2031;SDS011;27625;50.422;7.944;2024-01-30T05:17:01;23.43;;;13.67;;
2031;SDS011;27625;50.422;7.944;2024-01-30T05:19:29;25.53;;;15.93;;
2031;SDS011;27625;50.422;7.944;2024-01-30T05:22:01;19.87;;;14.07;;
2031;SDS011;27625;50.422;7.944;2024-01-30T05:24:28;17.80;;;13.30;;
2031;SDS011;27625;50.422;7.944;2024-01-30T05:26:55;22.67;;;14.53;;
2031;SDS011;27625;50.422;7.944;2024-01-30T05:29:21;21.07;;;13.97;;
2031;SDS011;27625;50.422;7.944;2024-01-30T05:31:49;20.40;;;14.47;;
2031;SDS011;27625;50.422;7.944;2024-01-30T05:34:17;23.23;;;14.70;;
2031;SDS011;27625;50.422;7.944;2024-01-30T05:36:44;23.17;;;14.60;;
2031;SDS011;27625;50.422;7.944;2024-01-30T05:39:17;26.83;;;15.57;;
2031;SDS011;27625;50.422;7.944;2024-01-30T05:41:44;25.03;;;14.77;;
2031;SDS011;27625;50.422;7.944;2024-01-30T05:44:16;25.60;;;13.50;;
2031;SDS011;27625;50.422;7.944;2024-01-30T05:46:44;25.60;;;15.37;;
2031;SDS011;27625;50.422;7.944;2024-01-30T05:49:13;28.07;;;16.57;;
2031;SDS011;27625;50.422;7.944;2024-01-30T05:51:46;24.60;;;16.23;;
2031;SDS011;27625;50.422;7.944;2024-01-30T05:54:12;27.07;;;16.53;;
2031;SDS011;27625;50.422;7.944;2024-01-30T05:56:40;21.43;;;15.70;;
2031;SDS011;27625;50.422;7.944;2024-01-30T05:59:07;21.83;;;14.27;;
2031;SDS011;27625;50.422;7.944;2024-01-30T06:01:35;22.00;;;15.17;;
2031;SDS011;27625;50.422;7.944;2024-01-30T06:04:02;27.70;;;14.50;;
2031;SDS011;27625;50.422;7.944;2024-01-30T06:06:31;26.43;;;16.30;;
2031;SDS011;27625;50.422;7.944;2024-01-30T06:08:57;20.87;;;14.20;;
2031;SDS011;27625;50.422;7.944;2024-01-30T06:11:25;31.67;;;15.80;;
2031;SDS011;27625;50.422;7.944;2024-01-30T06:13:52;20.83;;;13.10;;
2031;SDS011;27625;50.422;7.944;2024-01-30T06:16:32;26.07;;;15.10;;
2031;SDS011;27625;50.422;7.944;2024-01-30T06:18:59;21.57;;;13.87;;
2031;SDS011;27625;50.422;7.944;2024-01-30T06:21:37;25.90;;;15.50;;
2031;SDS011;27625;50.422;7.944;2024-01-30T06:24:19;20.37;;;13.40;;
2031;SDS011;27625;50.422;7.944;2024-01-30T06:29:16;22.50;;;14.27;;
2031;SDS011;27625;50.422;7.944;2024-01-30T06:31:45;24.57;;;14.30;;
2031;SDS011;27625;50.422;7.944;2024-01-30T06:34:11;20.77;;;12.60;;
2031;SDS011;27625;50.422;7.944;2024-01-30T06:36:46;19.33;;;13.40;;
2031;SDS011;27625;50.422;7.944;2024-01-30T06:39:12;23.80;;;15.10;;
2031;SDS011;27625;50.422;7.944;2024-01-30T06:41:39;24.40;;;15.10;;
2031;SDS011;27625;50.422;7.944;2024-01-30T06:44:05;23.07;;;13.70;;
2031;SDS011;27625;50.422;7.944;2024-01-30T06:46:37;22.63;;;14.63;;
2031;SDS011;27625;50.422;7.944;2024-01-30T06:49:04;19.07;;;14.57;;
2031;SDS011;27625;50.422;7.944;2024-01-30T06:51:38;23.90;;;13.47;;
2031;SDS011;27625;50.422;7.944;2024-01-30T06:54:06;24.47;;;14.90;;
2031;SDS011;27625;50.422;7.944;2024-01-30T06:56:39;18.87;;;13.83;;
2031;SDS011;27625;50.422;7.944;2024-01-30T06:59:06;19.93;;;14.13;;
2031;SDS011;27625;50.422;7.944;2024-01-30T07:01:33;22.33;;;12.30;;
2031;SDS011;27625;50.422;7.944;2024-01-30T07:04:00;23.70;;;13.83;;
2031;SDS011;27625;50.422;7.944;2024-01-30T07:06:28;22.43;;;13.80;;
2031;SDS011;27625;50.422;7.944;2024-01-30T07:08:54;20.53;;;14.27;;
2031;SDS011;27625;50.422;7.944;2024-01-30T07:11:34;22.40;;;13.80;;
2031;SDS011;27625;50.422;7.944;2024-01-30T07:14:00;18.70;;;13.40;;
2031;SDS011;27625;50.422;7.944;2024-01-30T07:16:29;19.93;;;13.60;;
2031;SDS011;27625;50.422;7.944;2024-01-30T07:18:59;18.57;;;13.37;;
2031;SDS011;27625;50.422;7.944;2024-01-30T07:21:26;23.50;;;13.73;;
2031;SDS011;27625;50.422;7.944;2024-01-30T07:23:54;23.60;;;16.20;;
2031;SDS011;27625;50.422;7.944;2024-01-30T07:26:20;21.97;;;13.23;;
2031;SDS011;27625;50.422;7.944;2024-01-30T07:28:50;21.23;;;14.03;;
2031;SDS011;27625;50.422;7.944;2024-01-30T07:31:19;27.73;;;16.97;;
2031;SDS011;27625;50.422;7.944;2024-01-30T07:33:49;22.23;;;14.40;;
2031;SDS011;27625;50.422;7.944;2024-01-30T07:36:16;20.80;;;12.83;;
2031;SDS011;27625;50.422;7.944;2024-01-30T07:38:44;23.53;;;14.40;;
2031;SDS011;27625;50.422;7.944;2024-01-30T07:41:10;23.43;;;14.30;;
2031;SDS011;27625;50.422;7.944;2024-01-30T07:43:38;21.80;;;14.63;;
2031;SDS011;27625;50.422;7.944;2024-01-30T07:46:10;25.93;;;15.70;;
2031;SDS011;27625;50.422;7.944;2024-01-30T07:48:37;43.87;;;25.47;;
2031;SDS011;27625;50.422;7.944;2024-01-30T07:51:05;57.00;;;29.73;;
2031;SDS011;27625;50.422;7.944;2024-01-30T07:53:34;30.80;;;18.57;;
2031;SDS011;27625;50.422;7.944;2024-01-30T07:56:03;25.63;;;17.27;;
2031;SDS011;27625;50.422;7.944;2024-01-30T07:58:30;25.20;;;16.23;;
2031;SDS011;27625;50.422;7.944;2024-01-30T08:00:57;32.47;;;19.17;;
2031;SDS011;27625;50.422;7.944;2024-01-30T08:03:30;31.80;;;18.67;;
2031;SDS011;27625;50.422;7.944;2024-01-30T08:05:57;29.50;;;18.27;;
2031;SDS011;27625;50.422;7.944;2024-01-30T08:08:24;32.40;;;18.10;;
2031;SDS011;27625;50.422;7.944;2024-01-30T08:10:53;27.40;;;18.07;;
2031;SDS011;27625;50.422;7.944;2024-01-30T08:13:21;34.30;;;19.00;;
2031;SDS011;27625;50.422;7.944;2024-01-30T08:15:51;32.20;;;18.70;;
2031;SDS011;27625;50.422;7.944;2024-01-30T08:18:25;35.00;;;18.87;;
2031;SDS011;27625;50.422;7.944;2024-01-30T08:20:53;33.60;;;19.50;;
2031;SDS011;27625;50.422;7.944;2024-01-30T08:23:20;30.57;;;19.13;;
2031;SDS011;27625;50.422;7.944;2024-01-30T08:25:48;34.33;;;20.17;;
2031;SDS011;27625;50.422;7.944;2024-01-30T08:28:14;31.03;;;18.80;;
2031;SDS011;27625;50.422;7.944;2024-01-30T08:30:41;36.83;;;21.93;;
2031;SDS011;27625;50.422;7.944;2024-01-30T08:33:08;35.30;;;21.10;;
2031;SDS011;27625;50.422;7.944;2024-01-30T08:35:35;28.27;;;18.73;;
2031;SDS011;27625;50.422;7.944;2024-01-30T08:38:04;27.30;;;18.00;;
2031;SDS011;27625;50.422;7.944;2024-01-30T08:40:32;30.50;;;19.80;;
2031;SDS011;27625;50.422;7.944;2024-01-30T08:43:00;33.00;;;19.67;;
2031;SDS011;27625;50.422;7.944;2024-01-30T08:45:27;33.87;;;18.07;;
2031;SDS011;27625;50.422;7.944;2024-01-30T08:47:54;27.03;;;17.90;;
2031;SDS011;27625;50.422;7.944;2024-01-30T08:50:21;32.00;;;18.70;;
2031;SDS011;27625;50.422;7.944;2024-01-30T08:52:49;25.77;;;16.17;;
2031;SDS011;27625;50.422;7.944;2024-01-30T08:55:19;34.30;;;19.73;;
2031;SDS011;27625;50.422;7.944;2024-01-30T08:57:46;30.63;;;18.10;;
2031;SDS011;27625;50.422;7.944;2024-01-30T09:02:44;25.87;;;15.77;;
2031;SDS011;27625;50.422;7.944;2024-01-30T09:05:11;24.37;;;16.67;;
2031;SDS011;27625;50.422;7.944;2024-01-30T09:07:39;28.40;;;17.70;;
2031;SDS011;27625;50.422;7.944;2024-01-30T09:10:07;21.20;;;15.47;;
2031;SDS011;27625;50.422;7.944;2024-01-30T09:12:36;26.70;;;16.60;;
2031;SDS011;27625;50.422;7.944;2024-01-30T09:15:04;26.60;;;14.97;;
2031;SDS011;27625;50.422;7.944;2024-01-30T09:17:32;34.97;;;17.00;;
2031;SDS011;27625;50.422;7.944;2024-01-30T09:19:59;25.97;;;16.27;;
2031;SDS011;27625;50.422;7.944;2024-01-30T09:22:26;24.30;;;16.70;;
2031;SDS011;27625;50.422;7.944;2024-01-30T09:24:53;27.43;;;18.20;;
2031;SDS011;27625;50.422;7.944;2024-01-30T09:27:20;25.37;;;17.27;;
2031;SDS011;27625;50.422;7.944;2024-01-30T09:29:48;24.60;;;16.83;;
2031;SDS011;27625;50.422;7.944;2024-01-30T09:32:17;25.70;;;15.90;;
2031;SDS011;27625;50.422;7.944;2024-01-30T09:34:43;26.23;;;17.70;;
2031;SDS011;27625;50.422;7.944;2024-01-30T09:37:10;25.77;;;16.30;;
2031;SDS011;27625;50.422;7.944;2024-01-30T09:39:38;25.30;;;16.30;;
2031;SDS011;27625;50.422;7.944;2024-01-30T09:42:05;27.03;;;17.50;;
2031;SDS011;27625;50.422;7.944;2024-01-30T09:44:35;23.77;;;15.87;;
2031;SDS011;27625;50.422;7.944;2024-01-30T09:47:08;23.07;;;15.47;;
2031;SDS011;27625;50.422;7.944;2024-01-30T09:49:35;25.27;;;16.60;;
2031;SDS011;27625;50.422;7.944;2024-01-30T09:52:05;30.10;;;17.37;;
2031;SDS011;27625;50.422;7.944;2024-01-30T09:54:32;26.67;;;16.00;;
2031;SDS011;27625;50.422;7.944;2024-01-30T09:56:59;26.40;;;16.17;;
2031;SDS011;27625;50.422;7.944;2024-01-30T09:59:26;24.40;;;16.00;;
2031;SDS011;27625;50.422;7.944;2024-01-30T10:01:52;28.83;;;16.20;;
2031;SDS011;27625;50.422;7.944;2024-01-30T10:04:21;23.20;;;16.10;;
2031;SDS011;27625;50.422;7.944;2024-01-30T10:06:48;23.80;;;17.50;;
2031;SDS011;27625;50.422;7.944;2024-01-30T10:09:24;28.53;;;18.13;;
2031;SDS011;27625;50.422;7.944;2024-01-30T10:11:51;24.23;;;15.43;;
2031;SDS011;27625;50.422;7.944;2024-01-30T10:14:18;28.00;;;16.70;;
2031;SDS011;27625;50.422;7.944;2024-01-30T10:16:45;30.57;;;18.23;;
2031;SDS011;27625;50.422;7.944;2024-01-30T10:19:14;26.40;;;18.17;;
2031;SDS011;27625;50.422;7.944;2024-01-30T10:21:42;27.23;;;17.03;;
2031;SDS011;27625;50.422;7.944;2024-01-30T10:24:11;26.83;;;16.57;;
2031;SDS011;27625;50.422;7.944;2024-01-30T10:26:39;28.67;;;17.50;;
2031;SDS011;27625;50.422;7.944;2024-01-30T10:29:06;28.67;;;18.33;;
2031;SDS011;27625;50.422;7.944;2024-01-30T10:31:33;34.23;;;17.70;;
2031;SDS011;27625;50.422;7.944;2024-01-30T10:34:05;26.50;;;17.10;;
2031;SDS011;27625;50.422;7.944;2024-01-30T10:36:35;25.57;;;16.83;;
2031;SDS011;27625;50.422;7.944;2024-01-30T10:39:07;26.73;;;17.53;;
2031;SDS011;27625;50.422;7.944;2024-01-30T10:41:35;31.50;;;17.30;;
2031;SDS011;27625;50.422;7.944;2024-01-30T10:44:08;25.37;;;15.23;;
2031;SDS011;27625;50.422;7.944;2024-01-30T10:46:42;32.33;;;18.73;;
2031;SDS011;27625;50.422;7.944;2024-01-30T10:49:13;25.93;;;16.40;;
2031;SDS011;27625;50.422;7.944;2024-01-30T10:51:58;26.93;;;16.33;;
2031;SDS011;27625;50.422;7.944;2024-01-30T10:54:37;25.47;;;16.07;;
2031;SDS011;27625;50.422;7.944;2024-01-30T10:57:06;27.47;;;17.87;;
2031;SDS011;27625;50.422;7.944;2024-01-30T10:59:34;32.90;;;18.50;;
2031;SDS011;27625;50.422;7.944;2024-01-30T11:02:07;26.13;;;16.53;;
2031;SDS011;27625;50.422;7.944;2024-01-30T11:04:46;32.43;;;17.80;;
2031;SDS011;27625;50.422;7.944;2024-01-30T11:07:18;25.80;;;17.03;;
2031;SDS011;27625;50.422;7.944;2024-01-30T11:09:51;32.40;;;18.83;;
2031;SDS011;27625;50.422;7.944;2024-01-30T11:12:23;25.77;;;16.40;;
2031;SDS011;27625;50.422;7.944;2024-01-30T11:15:01;24.37;;;17.47;;
2031;SDS011;27625;50.422;7.944;2024-01-30T11:17:39;29.03;;;16.50;;
2031;SDS011;27625;50.422;7.944;2024-01-30T11:20:09;27.07;;;17.53;;
2031;SDS011;27625;50.422;7.944;2024-01-30T11:22:40;23.27;;;16.33;;
2031;SDS011;27625;50.422;7.944;2024-01-30T11:25:12;24.87;;;15.27;;
2031;SDS011;27625;50.422;7.944;2024-01-30T11:27:39;21.30;;;14.60;;
2031;SDS011;27625;50.422;7.944;2024-01-30T11:30:08;25.77;;;14.80;;
2031;SDS011;27625;50.422;7.944;2024-01-30T11:32:35;24.20;;;15.90;;
2031;SDS011;27625;50.422;7.944;2024-01-30T11:35:03;22.00;;;15.30;;
2031;SDS011;27625;50.422;7.944;2024-01-30T11:37:39;22.63;;;15.23;;
2031;SDS011;27625;50.422;7.944;2024-01-30T11:40:09;29.70;;;16.00;;
2031;SDS011;27625;50.422;7.944;2024-01-30T11:42:37;21.80;;;15.70;;
2031;SDS011;27625;50.422;7.944;2024-01-30T11:45:11;30.60;;;17.03;;
2031;SDS011;27625;50.422;7.944;2024-01-30T11:47:43;23.33;;;15.10;;
2031;SDS011;27625;50.422;7.944;2024-01-30T11:50:10;27.87;;;16.03;;
2031;SDS011;27625;50.422;7.944;2024-01-30T11:52:39;27.33;;;16.07;;
2031;SDS011;27625;50.422;7.944;2024-01-30T11:55:07;25.00;;;15.67;;
2031;SDS011;27625;50.422;7.944;2024-01-30T11:57:41;24.90;;;16.20;;
2031;SDS011;27625;50.422;7.944;2024-01-30T12:00:14;22.37;;;15.13;;
2031;SDS011;27625;50.422;7.944;2024-01-30T12:02:48;25.00;;;16.37;;
2031;SDS011;27625;50.422;7.944;2024-01-30T12:05:15;22.03;;;15.23;;
2031;SDS011;27625;50.422;7.944;2024-01-30T12:07:43;23.33;;;14.63;;
2031;SDS011;27625;50.422;7.944;2024-01-30T12:10:14;24.10;;;15.70;;
2031;SDS011;27625;50.422;7.944;2024-01-30T12:12:45;23.83;;;15.37;;
2031;SDS011;27625;50.422;7.944;2024-01-30T12:15:14;26.53;;;14.97;;
2031;SDS011;27625;50.422;7.944;2024-01-30T12:17:42;28.17;;;15.97;;
2031;SDS011;27625;50.422;7.944;2024-01-30T12:20:09;21.30;;;15.07;;
2031;SDS011;27625;50.422;7.944;2024-01-30T12:22:38;21.40;;;15.13;;
2031;SDS011;27625;50.422;7.944;2024-01-30T12:25:07;24.07;;;14.60;;
2031;SDS011;27625;50.422;7.944;2024-01-30T12:27:35;23.70;;;14.50;;
2031;SDS011;27625;50.422;7.944;2024-01-30T12:30:06;21.80;;;15.63;;
2031;SDS011;27625;50.422;7.944;2024-01-30T12:32:35;22.67;;;16.17;;
2031;SDS011;27625;50.422;7.944;2024-01-30T12:35:02;26.80;;;16.20;;
2031;SDS011;27625;50.422;7.944;2024-01-30T12:37:36;19.57;;;14.10;;
2031;SDS011;27625;50.422;7.944;2024-01-30T12:40:03;22.00;;;14.30;;
2031;SDS011;27625;50.422;7.944;2024-01-30T12:42:31;23.50;;;16.03;;
2031;SDS011;27625;50.422;7.944;2024-01-30T12:45:02;26.73;;;16.60;;
2031;SDS011;27625;50.422;7.944;2024-01-30T12:47:31;23.73;;;16.33;;
2031;SDS011;27625;50.422;7.944;2024-01-30T12:49:59;28.03;;;18.20;;
2031;SDS011;27625;50.422;7.944;2024-01-30T12:52:28;27.93;;;18.33;;
2031;SDS011;27625;50.422;7.944;2024-01-30T12:54:56;25.83;;;17.60;;
2031;SDS011;27625;50.422;7.944;2024-01-30T12:57:25;27.50;;;18.33;;
2031;SDS011;27625;50.422;7.944;2024-01-30T12:59:53;27.90;;;17.97;;
2031;SDS011;27625;50.422;7.944;2024-01-30T13:02:20;27.60;;;18.40;;
2031;SDS011;27625;50.422;7.944;2024-01-30T13:04:49;27.97;;;20.20;;
2031;SDS011;27625;50.422;7.944;2024-01-30T13:07:17;24.37;;;17.47;;
2031;SDS011;27625;50.422;7.944;2024-01-30T13:09:45;26.53;;;17.50;;
2031;SDS011;27625;50.422;7.944;2024-01-30T13:12:12;28.07;;;17.27;;
2031;SDS011;27625;50.422;7.944;2024-01-30T13:14:40;26.53;;;17.80;;
2031;SDS011;27625;50.422;7.944;2024-01-30T13:17:07;24.70;;;16.73;;
2031;SDS011;27625;50.422;7.944;2024-01-30T13:19:35;22.53;;;16.43;;
2031;SDS011;27625;50.422;7.944;2024-01-30T13:22:04;26.77;;;16.57;;
2031;SDS011;27625;50.422;7.944;2024-01-30T13:24:31;23.67;;;16.93;;
2031;SDS011;27625;50.422;7.944;2024-01-30T13:26:59;23.70;;;16.07;;
2031;SDS011;27625;50.422;7.944;2024-01-30T13:29:25;26.13;;;17.10;;
2031;SDS011;27625;50.422;7.944;2024-01-30T13:31:52;24.50;;;16.70;;
2031;SDS011;27625;50.422;7.944;2024-01-30T13:34:20;26.40;;;17.00;;
2031;SDS011;27625;50.422;7.944;2024-01-30T13:36:47;28.17;;;17.43;;
2031;SDS011;27625;50.422;7.944;2024-01-30T13:39:16;23.70;;;15.83;;
2031;SDS011;27625;50.422;7.944;2024-01-30T13:41:44;22.70;;;15.73;;
2031;SDS011;27625;50.422;7.944;2024-01-30T13:44:11;25.97;;;17.60;;
2031;SDS011;27625;50.422;7.944;2024-01-30T13:46:38;26.43;;;16.90;;
2031;SDS011;27625;50.422;7.944;2024-01-30T13:49:07;25.00;;;17.47;;
2031;SDS011;27625;50.422;7.944;2024-01-30T13:51:34;28.10;;;19.47;;
2031;SDS011;27625;50.422;7.944;2024-01-30T13:56:53;30.73;;;19.63;;
2031;SDS011;27625;50.422;7.944;2024-01-30T13:59:20;31.40;;;19.33;;
2031;SDS011;27625;50.422;7.944;2024-01-30T14:01:49;33.30;;;22.40;;
2031;SDS011;27625;50.422;7.944;2024-01-30T14:04:27;32.50;;;20.20;;
2031;SDS011;27625;50.422;7.944;2024-01-30T14:07:06;28.23;;;19.83;;
2031;SDS011;27625;50.422;7.944;2024-01-30T14:09:44;27.97;;;17.37;;
2031;SDS011;27625;50.422;7.944;2024-01-30T14:12:20;23.10;;;16.60;;
2031;SDS011;27625;50.422;7.944;2024-01-30T14:17:29;24.23;;;17.13;;
2031;SDS011;27625;50.422;7.944;2024-01-30T14:19:56;26.20;;;17.03;;
2031;SDS011;27625;50.422;7.944;2024-01-30T14:22:24;24.50;;;17.40;;
2031;SDS011;27625;50.422;7.944;2024-01-30T14:24:58;28.03;;;17.33;;
2031;SDS011;27625;50.422;7.944;2024-01-30T14:27:26;25.07;;;17.90;;
2031;SDS011;27625;50.422;7.944;2024-01-30T14:29:53;25.87;;;18.20;;
2031;SDS011;27625;50.422;7.944;2024-01-30T14:32:19;24.80;;;16.70;;
2031;SDS011;27625;50.422;7.944;2024-01-30T14:34:54;26.00;;;18.23;;
2031;SDS011;27625;50.422;7.944;2024-01-30T14:37:21;25.03;;;17.50;;
2031;SDS011;27625;50.422;7.944;2024-01-30T14:39:49;26.47;;;18.10;;
2031;SDS011;27625;50.422;7.944;2024-01-30T14:42:17;27.27;;;18.40;;
2031;SDS011;27625;50.422;7.944;2024-01-30T14:44:44;33.00;;;21.03;;
2031;SDS011;27625;50.422;7.944;2024-01-30T14:47:12;31.43;;;19.87;;
2031;SDS011;27625;50.422;7.944;2024-01-30T14:49:39;33.77;;;19.73;;
2031;SDS011;27625;50.422;7.944;2024-01-30T14:52:06;43.23;;;19.83;;
2031;SDS011;27625;50.422;7.944;2024-01-30T14:54:45;32.73;;;15.70;;
2031;SDS011;27625;50.422;7.944;2024-01-30T14:57:15;31.10;;;17.73;;